Cuffley, United Kingdom
Current Conditions -  °F | °C
As of 8:20 AM on Monday 22 Dec 2014 (Local Time) from EGGW Reporting Station
Broken Clouds Broken Clouds  
Wind Chill: 54°   Ceiling: 1800
Heat Index: 54°   Visibility: 6mi
Dew Point: 48°   Wind: 29mph
Humidity: 82%   Direction: 240°WSW
Pressure: 30"   Gusts: NA
Location:  51.71°N, 0.11°W
Report Text: EGGW 220820Z 24025KT 9999 BKN018 12/09 Q1016
Loading
Personal Weather Stations






























Interactive Weather Map New forecast layout! Learn more

10-Day Weather Forecast

Advertisements
Track Severe Weather on mobile